Time;durP1;ratioP1;P1;durP2;ratioP2;P2;SDS_P1;SDS_P2;PMS_P1;PMS_P2;Temp;Humidity;BMP_temperature;BMP_pressure;BME280_temperature;BME280_humidity;BME280_pressure;Samples;Min_cycle;Max_cycle;Signal;HPM_P1;HPM_P2
2021/08/20 00:00:18;;;;;;;2.42;1.60;;;23.10;77.80;;;;;;5050254;28;20060;-66
2021/08/20 00:03:22;;;;;;;5.00;2.00;;;23.10;77.80;;;;;;5049885;28;20056;-66
2021/08/20 00:06:27;;;;;;;7.57;2.67;;;23.10;77.70;;;;;;5050387;28;20040;-66
2021/08/20 00:09:31;;;;;;;3.85;2.25;;;23.10;77.90;;;;;;5049595;28;20043;-66
2021/08/20 00:12:35;;;;;;;6.05;2.15;;;23.10;78.30;;;;;;5050190;28;20408;-66
2021/08/20 00:15:39;;;;;;;6.88;2.10;;;23.10;78.50;;;;;;5049990;28;20052;-66
2021/08/20 00:18:43;;;;;;;6.68;2.55;;;23.00;78.50;;;;;;5049779;28;20055;-66
2021/08/20 00:21:47;;;;;;;3.90;2.33;;;23.00;78.80;;;;;;5049877;28;20036;-66
2021/08/20 00:24:52;;;;;;;2.60;2.03;;;22.90;79.10;;;;;;5049682;28;20040;-66
2021/08/20 00:27:56;;;;;;;3.05;2.10;;;22.80;79.50;;;;;;5049335;28;20040;-66
2021/08/20 00:31:00;;;;;;;4.72;2.03;;;22.70;80.00;;;;;;5050160;28;20048;-66
2021/08/20 00:34:04;;;;;;;7.85;2.53;;;22.60;80.10;;;;;;5049113;28;20048;-66
2021/08/20 00:37:09;;;;;;;4.18;1.90;;;22.50;80.50;;;;;;5050081;28;20402;-66
2021/08/20 00:40:14;;;;;;;5.82;2.40;;;22.50;80.60;;;;;;5049664;28;20043;-66
2021/08/20 00:43:19;;;;;;;6.53;2.10;;;22.50;80.50;;;;;;5049700;28;20048;-66
2021/08/20 00:46:23;;;;;;;7.18;1.67;;;22.40;80.40;;;;;;5050042;28;20407;-66
2021/08/20 00:49:28;;;;;;;10.77;2.10;;;22.40;79.80;;;;;;5049230;28;20392;-66
2021/08/20 00:52:34;;;;;;;4.88;1.85;;;22.40;79.70;;;;;;5049391;28;20040;-66
2021/08/20 00:55:38;;;;;;;8.75;2.28;;;22.40;79.80;;;;;;5049582;28;20067;-66
2021/08/20 00:58:43;;;;;;;8.27;2.17;;;22.40;79.70;;;;;;5049059;28;20040;-66
2021/08/20 01:01:47;;;;;;;3.97;2.50;;;22.40;79.80;;;;;;5048843;28;20411;-66
2021/08/20 01:04:51;;;;;;;13.23;2.30;;;22.30;79.80;;;;;;5049315;28;20048;-66
2021/08/20 01:08:00;;;;;;;4.72;2.45;;;22.30;80.00;;;;;;5048215;28;20051;-66
2021/08/20 01:11:08;;;;;;;5.90;2.60;;;22.30;80.20;;;;;;5049341;28;20052;-66
2021/08/20 01:14:25;;;;;;;3.17;1.85;;;22.30;80.30;;;;;;5049022;28;20044;-66
2021/08/20 01:17:29;;;;;;;4.30;2.15;;;22.30;80.30;;;;;;5048391;28;20044;-66
2021/08/20 01:20:34;;;;;;;6.55;2.10;;;22.30;80.40;;;;;;5048436;28;20052;-66
2021/08/20 01:23:47;;;;;;;5.25;1.92;;;22.30;80.60;;;;;;5048056;28;20495;-66
2021/08/20 01:26:52;;;;;;;5.13;2.03;;;22.30;80.30;;;;;;5048493;28;20431;-66
2021/08/20 01:29:57;;;;;;;3.50;1.98;;;22.30;79.90;;;;;;5036745;28;20100;-66
2021/08/20 01:33:02;;;;;;;5.35;2.22;;;22.30;79.90;;;;;;5048436;28;20040;-66
2021/08/20 01:36:10;;;;;;;7.00;2.50;;;22.20;80.10;;;;;;5048043;28;20048;-66
2021/08/20 01:39:17;;;;;;;5.47;2.25;;;22.10;80.80;;;;;;5047916;28;20048;-66
2021/08/20 01:42:21;;;;;;;4.63;2.00;;;22.00;81.60;;;;;;5048919;28;20052;-66
2021/08/20 01:45:24;;;;;;;5.35;2.15;;;21.90;81.80;;;;;;5049571;28;20526;-66
2021/08/20 01:48:30;;;;;;;6.18;2.58;;;21.90;82.20;;;;;;5051634;28;20044;-66
2021/08/20 01:51:35;;;;;;;6.10;2.00;;;21.80;82.60;;;;;;5052941;28;20052;-66
2021/08/20 01:54:39;;;;;;;5.47;2.58;;;21.70;82.90;;;;;;5051661;28;20048;-66
2021/08/20 01:57:45;;;;;;;4.63;2.38;;;21.70;83.30;;;;;;5051832;28;20112;-66
2021/08/20 02:00:49;;;;;;;4.30;2.40;;;21.70;83.80;;;;;;5051974;28;20048;-66
2021/08/20 02:03:57;;;;;;;2.97;1.92;;;21.60;84.10;;;;;;5051639;28;20048;-66
2021/08/20 02:07:02;;;;;;;3.80;2.40;;;21.60;84.70;;;;;;5051992;28;20052;-66
2021/08/20 02:10:07;;;;;;;4.20;2.97;;;21.50;84.90;;;;;;5051686;28;20040;-66
2021/08/20 02:13:13;;;;;;;3.92;2.22;;;21.50;84.90;;;;;;5040332;28;21071;-66
2021/08/20 02:16:17;;;;;;;3.72;2.35;;;21.40;85.70;;;;;;5050868;28;20423;-66
2021/08/20 02:19:21;;;;;;;4.38;2.50;;;21.40;85.90;;;;;;5050953;28;20039;-66
2021/08/20 02:22:26;;;;;;;6.22;2.70;;;21.30;86.20;;;;;;5051344;28;20044;-66
2021/08/20 02:25:31;;;;;;;8.68;2.58;;;21.30;86.30;;;;;;5051288;28;20507;-66
2021/08/20 02:28:35;;;;;;;3.83;2.00;;;21.30;86.80;;;;;;5050969;28;20048;-66
2021/08/20 02:31:40;;;;;;;8.13;2.40;;;21.10;87.40;;;;;;5051444;28;20511;-66
2021/08/20 02:34:49;;;;;;;6.85;2.40;;;21.00;89.00;;;;;;5050787;28;20044;-66
2021/08/20 02:37:56;;;;;;;5.90;2.17;;;20.80;89.90;;;;;;5050650;28;20654;-65
2021/08/20 02:41:01;;;;;;;6.25;2.50;;;20.70;90.50;;;;;;5050784;28;20403;-66
2021/08/20 02:44:05;;;;;;;5.65;2.90;;;20.60;91.00;;;;;;5050979;28;20043;-66
2021/08/20 02:47:09;;;;;;;6.00;2.40;;;20.60;91.70;;;;;;5050618;28;20318;-66
2021/08/20 02:50:14;;;;;;;6.40;3.03;;;20.60;92.00;;;;;;5051037;28;20498;-66
2021/08/20 02:53:19;;;;;;;6.10;2.67;;;20.60;92.40;;;;;;5051518;28;20036;-66
2021/08/20 02:56:25;;;;;;;7.65;2.70;;;20.60;92.40;;;;;;5050725;28;20495;-66
2021/08/20 02:59:34;;;;;;;5.05;2.20;;;20.60;92.20;;;;;;5041221;28;20053;-66
2021/08/20 03:02:41;;;;;;;6.70;2.90;;;20.60;92.30;;;;;;5050427;28;20040;-66
2021/08/20 03:05:45;;;;;;;7.43;3.08;;;20.70;92.60;;;;;;5050199;28;20044;-66
2021/08/20 03:09:10;;;;;;;3.58;2.40;;;20.60;92.70;;;;;;5030004;28;20041;-66
2021/08/20 03:12:16;;;;;;;4.63;2.70;;;20.60;92.60;;;;;;5030389;28;20048;-66
2021/08/20 03:15:28;;;;;;;8.70;2.53;;;20.60;92.40;;;;;;5036911;28;20052;-66
2021/08/20 03:18:35;;;;;;;4.28;2.47;;;20.60;92.40;;;;;;5050024;28;20052;-66
2021/08/20 03:21:49;;;;;;;4.65;2.25;;;20.60;92.50;;;;;;5050140;28;20384;-66
2021/08/20 03:24:28;;;;;;;5.65;2.40;;;20.60;92.50;;;;;;5066917;28;20375;-55
2021/08/20 03:27:07;;;;;;;4.13;2.50;;;20.60;92.40;;;;;;5066814;28;20378;-53
2021/08/20 03:29:44;;;;;;;8.13;2.25;;;20.60;92.30;;;;;;5066449;27;20383;-54
2021/08/20 03:32:34;;;;;;;5.80;2.50;;;20.60;92.30;;;;;;5081820;22;20433;-55
2021/08/20 03:35:14;;;;;;;5.22;2.63;;;20.50;92.30;;;;;;5067037;28;20379;-55
2021/08/20 03:37:54;;;;;;;4.50;2.50;;;20.50;92.40;;;;;;5066921;28;20383;-51
2021/08/20 03:40:35;;;;;;;6.57;2.30;;;20.60;92.40;;;;;;5067082;28;20391;-52
2021/08/20 03:43:14;;;;;;;7.70;2.33;;;20.50;92.40;;;;;;5066979;27;20379;-55
2021/08/20 03:45:59;;;;;;;7.53;2.33;;;20.60;92.60;;;;;;5066762;28;20375;-52
2021/08/20 03:48:44;;;;;;;4.35;2.08;;;20.50;92.60;;;;;;5066833;28;20387;-54
2021/08/20 03:51:22;;;;;;;5.43;2.40;;;20.60;92.60;;;;;;5066689;28;20754;-52
2021/08/20 03:54:00;;;;;;;4.70;2.22;;;20.60;92.50;;;;;;5067154;28;20383;-52
2021/08/20 03:56:38;;;;;;;5.18;2.55;;;20.70;92.40;;;;;;5066957;28;20387;-55
2021/08/20 03:59:45;;;;;;;7.68;2.45;;;20.70;92.40;;;;;;5066778;28;20601;-52
2021/08/20 04:02:27;;;;;;;4.82;2.50;;;20.60;92.70;;;;;;5107211;27;20384;-53
2021/08/20 04:05:05;;;;;;;5.50;2.90;;;20.40;93.30;;;;;;5066907;28;20757;-52
2021/08/20 04:07:54;;;;;;;4.22;1.95;;;20.30;93.60;;;;;;5066620;28;20371;-55
2021/08/20 04:10:58;;;;;;;4.93;2.33;;;20.30;93.70;;;;;;5087060;28;20373;-52
2021/08/20 04:14:08;;;;;;;8.23;2.50;;;20.20;94.00;;;;;;5066699;28;20371;-55
2021/08/20 04:16:47;;;;;;;5.32;2.95;;;20.10;94.10;;;;;;5066427;28;20371;-54
2021/08/20 04:19:25;;;;;;;5.85;2.53;;;20.10;94.40;;;;;;5046575;28;20399;-52
2021/08/20 04:22:03;;;;;;;7.25;3.05;;;20.00;94.90;;;;;;5066658;28;20387;-52
2021/08/20 04:24:42;;;;;;;6.93;3.17;;;19.80;95.20;;;;;;5066721;28;20375;-52
2021/08/20 04:27:49;;;;;;;6.45;2.97;;;19.80;95.70;;;;;;5046278;28;20144;-53
2021/08/20 04:30:42;;;;;;;4.95;2.80;;;19.70;96.00;;;;;;5066141;28;20387;-53
2021/08/20 04:33:37;;;;;;;5.43;2.97;;;19.60;96.00;;;;;;5066753;28;20375;-50
2021/08/20 04:36:32;;;;;;;7.18;2.80;;;19.60;96.20;;;;;;5066423;28;20386;-52
2021/08/20 04:39:33;;;;;;;6.10;3.33;;;19.60;96.40;;;;;;5066489;28;20379;-52
2021/08/20 04:42:38;;;;;;;7.78;2.83;;;19.60;96.40;;;;;;5067019;28;20379;-51
2021/08/20 04:45:28;;;;;;;6.20;3.00;;;19.60;96.50;;;;;;5107325;27;20399;-52
2021/08/20 04:48:19;;;;;;;5.10;2.67;;;19.60;96.60;;;;;;5065982;28;20892;-52
2021/08/20 04:51:19;;;;;;;6.35;3.00;;;19.60;96.80;;;;;;5066721;28;20375;-53
2021/08/20 04:54:17;;;;;;;7.68;2.95;;;19.70;96.80;;;;;;5127485;27;20381;-52
2021/08/20 04:57:03;;;;;;;4.40;3.13;;;19.80;96.80;;;;;;5066685;28;20395;-54
2021/08/20 04:59:55;;;;;;;5.65;3.13;;;19.80;97.00;;;;;;5087174;27;20402;-50
2021/08/20 05:03:06;;;;;;;8.15;2.90;;;19.90;97.00;;;;;;5067834;27;21011;-51
2021/08/20 05:05:58;;;;;;;9.90;3.60;;;20.00;97.20;;;;;;5118267;27;20398;-56
2021/08/20 05:09:03;;;;;;;8.43;3.17;;;20.00;97.10;;;;;;5026921;27;20846;-52
2021/08/20 05:11:59;;;;;;;11.70;3.85;;;20.10;97.00;;;;;;5175079;27;20769;-52
2021/08/20 05:14:55;;;;;;;8.93;3.78;;;20.20;96.70;;;;;;5190260;27;20417;-52
2021/08/20 05:17:53;;;;;;;18.02;3.38;;;20.30;96.50;;;;;;5127668;27;20349;-53
2021/08/20 05:20:44;;;;;;;13.43;3.30;;;20.80;96.50;;;;;;5122655;27;20399;-52
2021/08/20 05:23:47;;;;;;;8.02;3.38;;;22.90;94.20;;;;;;5116366;27;20435;-53
2021/08/20 05:26:50;;;;;;;19.40;3.72;;;25.10;90.80;;;;;;5128663;27;20777;-53
2021/08/20 05:29:42;;;;;;;9.57;3.17;;;27.00;85.70;;;;;;5087325;27;20410;-52
2021/08/20 05:32:22;;;;;;;9.93;2.70;;;28.00;80.70;;;;;;5067126;27;20379;-52
2021/08/20 05:34:59;;;;;;;6.93;2.67;;;28.50;78.50;;;;;;5087084;27;20374;-53
2021/08/20 05:37:37;;;;;;;5.70;2.40;;;29.20;76.10;;;;;;5066682;28;20375;-52
2021/08/20 05:40:16;;;;;;;5.20;2.88;;;29.80;74.40;;;;;;5066605;28;20371;-51
2021/08/20 05:42:53;;;;;;;9.63;2.72;;;30.30;72.90;;;;;;5067021;28;20720;-52
2021/08/20 05:45:36;;;;;;;4.32;2.20;;;30.90;71.60;;;;;;5066742;28;20371;-54
2021/08/20 05:48:13;;;;;;;11.05;2.63;;;29.60;71.90;;;;;;5066425;28;20383;-51
2021/08/20 05:50:51;;;;;;;10.93;2.97;;;28.00;74.30;;;;;;5067092;28;20371;-53
2021/08/20 05:53:29;;;;;;;8.73;2.85;;;28.20;75.80;;;;;;5066992;28;20375;-53
2021/08/20 05:56:07;;;;;;;10.30;2.97;;;28.70;75.60;;;;;;5086994;28;20378;-53
2021/08/20 05:58:45;;;;;;;9.35;2.53;;;29.20;75.10;;;;;;5066461;28;20142;-53
2021/08/20 06:01:22;;;;;;;8.25;2.40;;;29.90;73.90;;;;;;5066760;28;20387;-53
2021/08/20 06:04:00;;;;;;;5.90;2.47;;;30.30;73.00;;;;;;5066894;28;20378;-52
2021/08/20 06:06:44;;;;;;;7.80;2.67;;;31.10;70.60;;;;;;5066900;28;20402;-52
2021/08/20 06:09:22;;;;;;;8.07;2.28;;;31.60;69.00;;;;;;5066498;28;21018;-54
2021/08/20 06:12:01;;;;;;;7.85;2.60;;;32.20;67.80;;;;;;5067229;28;20383;-55
2021/08/20 06:14:40;;;;;;;6.65;2.15;;;32.40;67.10;;;;;;5067457;28;20665;-52
2021/08/20 06:17:18;;;;;;;7.90;2.42;;;32.40;66.90;;;;;;5066434;28;20371;-54
2021/08/20 06:19:56;;;;;;;6.55;2.20;;;32.70;66.90;;;;;;5066698;28;20379;-54
2021/08/20 06:22:34;;;;;;;4.35;2.22;;;32.00;66.60;;;;;;5107371;27;20386;-53
2021/08/20 06:25:12;;;;;;;6.15;2.63;;;29.60;68.50;;;;;;5066856;28;20371;-52
2021/08/20 06:27:49;;;;;;;5.05;2.65;;;28.50;71.20;;;;;;5107043;27;20140;-53
2021/08/20 06:30:27;;;;;;;3.80;2.00;;;29.20;71.40;;;;;;5067146;28;20367;-54
2021/08/20 06:33:05;;;;;;;9.95;2.70;;;30.10;70.20;;;;;;5067275;27;20387;-53
2021/08/20 06:35:42;;;;;;;4.80;2.20;;;31.00;68.80;;;;;;5066771;28;20131;-53
2021/08/20 06:38:20;;;;;;;4.85;2.13;;;32.00;67.30;;;;;;5066367;28;20375;-54
2021/08/20 06:40:58;;;;;;;4.85;1.92;;;32.80;65.90;;;;;;5066698;28;20371;-52
2021/08/20 06:43:37;;;;;;;5.47;2.22;;;33.20;64.60;;;;;;5066964;28;20375;-51
2021/08/20 06:46:15;;;;;;;7.43;2.03;;;33.50;64.10;;;;;;5066747;28;20375;-52
2021/08/20 06:48:53;;;;;;;3.67;1.95;;;34.00;63.70;;;;;;5066517;28;20379;-52
2021/08/20 06:51:30;;;;;;;9.98;2.42;;;34.20;62.70;;;;;;5067115;28;20134;-52
2021/08/20 06:54:08;;;;;;;7.32;2.28;;;34.60;61.60;;;;;;5066727;28;20379;-52
2021/08/20 06:56:46;;;;;;;3.83;2.10;;;35.20;60.50;;;;;;5066593;28;20375;-51
2021/08/20 06:59:28;;;;;;;4.25;2.15;;;35.30;59.30;;;;;;5106746;27;20385;-50
2021/08/20 07:02:06;;;;;;;9.18;2.00;;;35.60;59.10;;;;;;5066594;28;20677;-51
2021/08/20 07:04:44;;;;;;;9.18;1.90;;;36.00;58.60;;;;;;5066812;28;20387;-52
2021/08/20 07:07:22;;;;;;;6.15;2.05;;;36.30;58.00;;;;;;5066834;28;20371;-50
2021/08/20 07:10:00;;;;;;;6.40;1.77;;;36.60;56.70;;;;;;5086788;28;20376;-50
2021/08/20 07:12:38;;;;;;;4.78;1.98;;;37.00;56.40;;;;;;5066610;27;20134;-53
2021/08/20 07:15:15;;;;;;;4.13;1.90;;;37.50;55.80;;;;;;5066867;28;20375;-52
2021/08/20 07:17:53;;;;;;;5.68;1.92;;;35.80;56.80;;;;;;5066596;27;20378;-51
2021/08/20 07:20:32;;;;;;;4.88;2.30;;;33.00;60.50;;;;;;5066869;27;20826;-52
2021/08/20 07:23:10;;;;;;;3.30;2.08;;;32.10;62.60;;;;;;5066763;28;20375;-51
2021/08/20 07:25:46;;;;;;;5.90;1.67;;;32.60;63.30;;;;;;5107090;27;20136;-52
2021/08/20 07:28:25;;;;;;;2.97;1.90;;;33.50;60.90;;;;;;5066444;28;20379;-51
2021/08/20 07:31:04;;;;;;;3.95;1.83;;;32.30;60.40;;;;;;5066864;28;20387;-50
2021/08/20 07:33:41;;;;;;;8.00;1.95;;;34.30;59.30;;;;;;5066805;28;20375;-52
2021/08/20 07:36:18;;;;;;;3.70;1.65;;;35.40;59.00;;;;;;5066841;28;20131;-51
2021/08/20 07:38:56;;;;;;;5.07;2.08;;;33.70;59.80;;;;;;5066046;27;20375;-51
2021/08/20 07:41:34;;;;;;;5.30;2.20;;;33.50;60.90;;;;;;5066878;28;20375;-53
2021/08/20 07:44:15;;;;;;;5.50;1.80;;;34.00;59.80;;;;;;5066868;28;20367;-52
2021/08/20 07:46:53;;;;;;;3.80;2.15;;;33.90;58.80;;;;;;5067166;28;20383;-54
2021/08/20 07:49:30;;;;;;;3.78;1.73;;;34.70;59.50;;;;;;5066764;28;20383;-52
2021/08/20 07:52:09;;;;;;;22.80;3.25;;;35.70;58.20;;;;;;5066352;28;20383;-54
2021/08/20 07:54:49;;;;;;;4.75;2.08;;;35.90;58.10;;;;;;5066983;28;20378;-52
2021/08/20 07:57:27;;;;;;;3.45;2.00;;;36.70;57.60;;;;;;5066668;28;20374;-50
2021/08/20 08:00:06;;;;;;;5.05;2.08;;;35.30;59.00;;;;;;5066384;28;20375;-50
2021/08/20 08:02:50;;;;;;;6.05;1.80;;;35.40;59.20;;;;;;5066734;28;20379;-53
2021/08/20 08:05:42;;;;;;;4.50;1.83;;;35.00;59.30;;;;;;5128129;27;20111;-51
2021/08/20 08:08:36;;;;;;;3.08;2.13;;;33.00;59.20;;;;;;5086565;27;20410;-51
2021/08/20 08:11:37;;;;;;;3.25;1.83;;;34.50;59.60;;;;;;5128917;27;20406;-52
2021/08/20 08:14:37;;;;;;;3.05;1.60;;;34.20;57.80;;;;;;5116396;27;20470;-52
2021/08/20 08:17:44;;;;;;;7.88;2.00;;;34.00;57.00;;;;;;5145649;27;20423;-52
2021/08/20 08:20:36;;;;;;;2.90;2.05;;;35.60;56.90;;;;;;5086210;27;20874;-52
2021/08/20 08:23:31;;;;;;;3.22;1.75;;;37.40;55.30;;;;;;5128401;27;20306;-51
2021/08/20 08:26:26;;;;;;;4.22;1.95;;;36.80;54.50;;;;;;5087767;27;20547;-51
2021/08/20 08:29:22;;;;;;;6.72;1.75;;;36.90;53.90;;;;;;5190055;27;20477;-52
2021/08/20 08:32:14;;;;;;;4.53;1.88;;;37.70;53.00;;;;;;5128871;27;20334;-53
2021/08/20 08:35:06;;;;;;;9.07;1.60;;;39.50;51.90;;;;;;5089023;27;20409;-51
2021/08/20 08:38:03;;;;;;;5.80;1.50;;;39.30;50.90;;;;;;5046753;28;20398;-52
2021/08/20 08:41:03;;;;;;;2.38;1.40;;;39.30;50.70;;;;;;5097796;27;20944;-52
2021/08/20 08:43:55;;;;;;;2.17;1.50;;;40.10;50.10;;;;;;5087098;27;20401;-52
2021/08/20 08:46:50;;;;;;;5.82;1.70;;;41.90;49.10;;;;;;5087456;27;20771;-54
2021/08/20 08:49:28;;;;;;;2.95;1.70;;;42.70;48.80;;;;;;5066374;28;20375;-52
2021/08/20 08:52:06;;;;;;;3.47;1.80;;;43.60;48.20;;;;;;5066864;28;20367;-52
2021/08/20 08:54:44;;;;;;;3.67;1.45;;;44.70;47.10;;;;;;5087078;27;20377;-54
2021/08/20 08:57:22;;;;;;;6.03;1.70;;;45.80;46.10;;;;;;5066998;28;20383;-55
2021/08/20 08:59:59;;;;;;;17.55;2.75;;;46.20;45.70;;;;;;5066546;28;20138;-52
2021/08/20 09:02:37;;;;;;;5.88;1.42;;;45.40;45.30;;;;;;5107818;27;20372;-52
2021/08/20 09:05:15;;;;;;;4.88;1.58;;;43.60;46.10;;;;;;5066801;28;20387;-53
2021/08/20 09:07:54;;;;;;;2.60;1.58;;;42.10;46.40;;;;;;5066794;28;20386;-52
2021/08/20 09:10:33;;;;;;;2.53;1.50;;;43.10;46.20;;;;;;5066227;28;20383;-52
2021/08/20 09:13:10;;;;;;;4.45;1.42;;;43.30;46.10;;;;;;5107370;27;20379;-56
2021/08/20 09:16:08;;;;;;;2.80;1.55;;;40.60;47.20;;;;;;5107296;27;20383;-55
2021/08/20 09:18:45;;;;;;;2.95;1.60;;;43.20;46.30;;;;;;5066731;28;20394;-54
2021/08/20 09:21:29;;;;;;;2.20;1.50;;;44.40;45.60;;;;;;5066544;27;20386;-54
2021/08/20 09:24:29;;;;;;;1.55;1.00;;;46.20;44.60;;;;;;5067292;28;20920;-56
2021/08/20 09:27:17;;;;;;;1.65;1.40;;;47.40;43.70;;;;;;5066975;28;20379;-52
2021/08/20 09:30:03;;;;;;;2.55;1.58;;;47.70;43.20;;;;;;5066349;28;20383;-52
2021/08/20 09:32:51;;;;;;;2.55;1.40;;;43.20;44.40;;;;;;5107196;27;20151;-51
2021/08/20 09:35:36;;;;;;;2.75;1.40;;;45.40;44.50;;;;;;5122967;27;20388;-52
2021/08/20 09:38:14;;;;;;;2.20;1.58;;;45.20;43.50;;;;;;5066817;28;20375;-55
2021/08/20 09:41:00;;;;;;;3.67;1.33;;;46.50;43.20;;;;;;5066219;28;20391;-52
2021/08/20 09:43:41;;;;;;;4.72;1.30;;;45.80;43.50;;;;;;5066884;28;20383;-52
2021/08/20 09:46:20;;;;;;;3.25;1.40;;;46.60;43.30;;;;;;5003706;28;20765;-53
2021/08/20 09:49:02;;;;;;;4.43;1.50;;;45.10;42.70;;;;;;5066642;28;20379;-53
2021/08/20 09:51:40;;;;;;;4.28;1.40;;;46.50;43.30;;;;;;5066686;28;20379;-57
2021/08/20 09:54:23;;;;;;;2.95;1.65;;;46.60;42.90;;;;;;5107318;27;20384;-54
2021/08/20 09:57:00;;;;;;;2.58;1.27;;;45.60;43.50;;;;;;5066622;28;20371;-53
2021/08/20 09:59:38;;;;;;;3.45;1.40;;;47.30;42.90;;;;;;5066789;28;20375;-54
2021/08/20 10:02:23;;;;;;;2.80;1.40;;;44.80;41.40;;;;;;5106914;27;20380;-55
2021/08/20 10:05:02;;;;;;;2.22;1.40;;;43.90;43.60;;;;;;5066920;28;20387;-55
2021/08/20 10:07:40;;;;;;;3.97;1.38;;;45.90;43.30;;;;;;5066737;28;20387;-56
2021/08/20 10:10:19;;;;;;;2.58;1.60;;;47.00;43.10;;;;;;5107024;27;20387;-54
2021/08/20 10:12:58;;;;;;;4.13;1.63;;;46.00;42.90;;;;;;5066786;28;20769;-54
2021/08/20 10:15:36;;;;;;;6.28;1.80;;;45.60;44.10;;;;;;5066776;28;20877;-51
2021/08/20 10:18:42;;;;;;;3.30;1.83;;;43.90;43.40;;;;;;5066968;28;20040;-51
2021/08/20 10:21:47;;;;;;;2.50;1.52;;;44.20;45.20;;;;;;5066199;28;20036;-52
2021/08/20 10:24:51;;;;;;;5.80;1.88;;;46.50;43.90;;;;;;5066959;28;20033;-52
2021/08/20 10:27:56;;;;;;;2.90;1.70;;;46.40;44.00;;;;;;5046344;28;20034;-52
2021/08/20 10:31:01;;;;;;;5.45;1.65;;;47.30;43.20;;;;;;5046583;28;20045;-51
2021/08/20 10:34:31;;;;;;;3.92;1.60;;;46.90;43.10;;;;;;5046680;28;20049;-52
2021/08/20 10:37:35;;;;;;;6.78;2.10;;;47.90;42.70;;;;;;5046773;28;20397;-51
2021/08/20 10:40:39;;;;;;;3.47;1.20;;;45.30;43.00;;;;;;5057955;23;20049;-49
2021/08/20 10:43:56;;;;;;;4.32;1.40;;;46.70;43.80;;;;;;5039330;28;20041;-50
2021/08/20 10:46:37;;;;;;;4.50;1.55;;;49.20;42.70;;;;;;5046572;27;20750;-50
2021/08/20 10:49:20;;;;;;;7.30;1.50;;;50.40;42.10;;;;;;5066417;28;20769;-50
2021/08/20 10:51:59;;;;;;;2.67;1.70;;;50.00;41.90;;;;;;5107003;27;20912;-50
2021/08/20 10:54:37;;;;;;;5.35;1.40;;;48.30;41.20;;;;;;5066857;28;20379;-49
2021/08/20 10:57:33;;;;;;;3.45;2.00;;;48.10;41.90;;;;;;5064799;28;20134;-50
2021/08/20 11:00:20;;;;;;;7.88;2.00;;;47.50;42.30;;;;;;5031476;28;20768;-52
2021/08/20 11:02:59;;;;;;;4.65;1.83;;;46.70;42.00;;;;;;5066484;28;20142;-52
2021/08/20 11:05:38;;;;;;;2.38;1.38;;;44.60;41.70;;;;;;5066677;28;20394;-50
2021/08/20 11:08:27;;;;;;;9.25;2.03;;;46.90;43.40;;;;;;5066618;28;20741;-49
2021/08/20 11:11:27;;;;;;;5.70;2.42;;;48.50;42.10;;;;;;5087076;28;20378;-49
2021/08/20 11:14:25;;;;;;;5.03;2.38;;;45.20;41.40;;;;;;5107309;27;20772;-49
2021/08/20 11:17:05;;;;;;;6.47;2.42;;;43.80;42.10;;;;;;5067272;28;20391;-50
2021/08/20 11:19:48;;;;;;;3.97;2.28;;;43.70;44.20;;;;;;5066660;28;20391;-49
2021/08/20 11:23:13;;;;;;;6.18;2.10;;;44.80;43.30;;;;;;5046823;28;20038;-52
2021/08/20 11:25:52;;;;;;;2.85;2.08;;;44.70;43.80;;;;;;5067184;28;20382;-50
2021/08/20 11:28:40;;;;;;;5.63;2.13;;;45.30;43.80;;;;;;5066775;28;20379;-53
2021/08/20 11:31:19;;;;;;;5.50;2.63;;;45.70;43.40;;;;;;5066762;28;20375;-53
2021/08/20 11:34:23;;;;;;;4.80;2.78;;;42.50;43.60;;;;;;5046905;28;20053;-49
2021/08/20 11:37:27;;;;;;;5.13;3.10;;;41.20;44.70;;;;;;5047002;28;20037;-50
2021/08/20 11:40:32;;;;;;;4.55;2.58;;;43.50;44.70;;;;;;5046660;28;20041;-48
2021/08/20 11:43:46;;;;;;;7.40;2.47;;;46.10;43.20;;;;;;5046295;28;20029;-49
2021/08/20 11:46:51;;;;;;;3.67;2.17;;;48.30;42.50;;;;;;5046823;28;20053;-50
2021/08/20 11:50:06;;;;;;;4.93;2.60;;;49.40;41.90;;;;;;5045412;28;20384;-47
2021/08/20 11:53:11;;;;;;;4.80;2.50;;;50.00;41.90;;;;;;5046124;28;20377;-48
2021/08/20 11:56:16;;;;;;;5.03;2.85;;;48.60;40.50;;;;;;5046430;28;20048;-50
2021/08/20 11:59:23;;;;;;;6.80;2.65;;;46.80;41.60;;;;;;5046161;28;20037;-49
2021/08/20 12:02:27;;;;;;;4.97;2.55;;;46.50;41.60;;;;;;5046563;28;20041;-48
2021/08/20 12:05:31;;;;;;;7.57;3.22;;;40.60;44.90;;;;;;5046398;28;20033;-47
2021/08/20 12:08:38;;;;;;;3.58;2.67;;;41.10;46.00;;;;;;5046461;28;20049;-50
2021/08/20 12:11:43;;;;;;;6.50;2.90;;;44.10;44.60;;;;;;5046304;28;20038;-51
2021/08/20 12:14:47;;;;;;;3.90;2.65;;;46.20;43.30;;;;;;5045534;28;20494;-49
2021/08/20 12:18:19;;;;;;;5.53;2.45;;;47.30;42.20;;;;;;5046564;28;20046;-49
2021/08/20 12:21:24;;;;;;;3.50;2.42;;;47.40;42.20;;;;;;5045937;28;20506;-48
2021/08/20 12:24:31;;;;;;;7.13;2.42;;;41.10;44.20;;;;;;5045681;28;20042;-47
2021/08/20 12:27:40;;;;;;;3.25;2.30;;;41.50;45.70;;;;;;5045919;28;20495;-47
2021/08/20 12:30:47;;;;;;;3.70;2.42;;;42.00;44.20;;;;;;5045433;28;20033;-50
2021/08/20 12:34:00;;;;;;;4.15;2.50;;;41.60;44.70;;;;;;5045770;28;20037;-50
2021/08/20 12:37:05;;;;;;;6.82;2.97;;;44.00;44.50;;;;;;5045757;28;20038;-52
2021/08/20 12:40:13;;;;;;;5.95;2.67;;;45.10;43.40;;;;;;5045385;28;20037;-49
2021/08/20 12:43:35;;;;;;;4.95;2.80;;;45.50;42.60;;;;;;5032020;28;20037;-51
2021/08/20 12:46:42;;;;;;;3.45;2.60;;;40.80;45.20;;;;;;5032162;28;20037;-47
2021/08/20 12:50:10;;;;;;;3.40;2.65;;;41.60;44.80;;;;;;5031579;28;20034;-47
2021/08/20 12:53:14;;;;;;;5.07;2.50;;;42.40;44.10;;;;;;5032238;28;20038;-49
2021/08/20 12:56:36;;;;;;;4.10;2.35;;;41.20;45.40;;;;;;5031991;28;20045;-50
2021/08/20 12:59:43;;;;;;;4.93;2.90;;;43.60;44.60;;;;;;5031048;28;20033;-48
2021/08/20 13:02:47;;;;;;;7.35;3.13;;;44.50;43.70;;;;;;5031467;28;20388;-47
2021/08/20 13:06:00;;;;;;;3.78;2.53;;;40.10;45.40;;;;;;5029067;28;20038;-50
2021/08/20 13:09:04;;;;;;;4.78;2.83;;;39.80;45.80;;;;;;5023701;28;20388;-52
2021/08/20 13:12:08;;;;;;;5.43;3.30;;;40.50;46.00;;;;;;5031386;28;20404;-47
2021/08/20 13:15:15;;;;;;;6.03;3.00;;;41.80;45.50;;;;;;5031499;28;20037;-48
2021/08/20 13:18:20;;;;;;;4.63;3.28;;;42.60;44.70;;;;;;5031926;28;20041;-48
2021/08/20 13:21:24;;;;;;;5.20;2.80;;;43.00;44.10;;;;;;5031307;28;20038;-48
2021/08/20 13:24:28;;;;;;;8.75;3.40;;;42.50;44.40;;;;;;5031230;28;20033;-50
2021/08/20 13:27:33;;;;;;;5.45;3.25;;;42.80;44.80;;;;;;5031822;28;20041;-47
2021/08/20 13:30:39;;;;;;;13.45;3.40;;;42.70;44.60;;;;;;5031085;28;20049;-48
2021/08/20 13:33:45;;;;;;;5.97;3.00;;;42.90;44.20;;;;;;5031037;28;20049;-48
2021/08/20 13:36:50;;;;;;;5.82;3.40;;;42.50;44.20;;;;;;5030342;28;20484;-50
2021/08/20 13:39:54;;;;;;;6.82;4.10;;;38.00;46.40;;;;;;5030910;28;20045;-51
2021/08/20 13:43:03;;;;;;;13.35;4.25;;;37.90;48.10;;;;;;5031048;28;20045;-50
2021/08/20 13:46:07;;;;;;;10.82;4.60;;;37.30;48.40;;;;;;5030898;28;20048;-49
2021/08/20 13:49:14;;;;;;;6.30;3.92;;;37.00;48.70;;;;;;5031267;28;20048;-49
2021/08/20 13:52:19;;;;;;;5.05;3.50;;;34.60;50.90;;;;;;5030823;28;20041;-49
2021/08/20 13:55:24;;;;;;;9.07;4.78;;;34.60;51.70;;;;;;5031196;28;20388;-49
2021/08/20 13:58:29;;;;;;;7.22;3.83;;;35.60;51.00;;;;;;5031106;28;20037;-52
2021/08/20 14:01:33;;;;;;;6.55;4.28;;;34.30;51.70;;;;;;5031343;28;20396;-49
2021/08/20 14:04:36;;;;;;;10.48;4.55;;;34.70;51.70;;;;;;5030110;28;20037;-50
2021/08/20 14:07:41;;;;;;;8.65;4.63;;;35.60;51.10;;;;;;5031119;28;20052;-51
2021/08/20 14:10:46;;;;;;;6.15;3.95;;;36.50;49.80;;;;;;5031169;28;20045;-49
2021/08/20 14:13:50;;;;;;;6.22;4.13;;;37.20;49.20;;;;;;5025941;28;20488;-51
2021/08/20 14:16:55;;;;;;;6.47;3.72;;;35.80;50.00;;;;;;5021234;28;20041;-50
2021/08/20 14:20:07;;;;;;;7.90;3.80;;;37.00;49.80;;;;;;5030734;28;20037;-50
2021/08/20 14:23:11;;;;;;;19.90;4.90;;;38.10;48.60;;;;;;5031132;28;20053;-50
2021/08/20 14:26:15;;;;;;;7.65;3.90;;;38.40;48.60;;;;;;5030762;28;20052;-50
2021/08/20 14:29:19;;;;;;;9.50;4.22;;;38.30;48.50;;;;;;5030338;28;20056;-50
2021/08/20 14:32:27;;;;;;;9.10;4.47;;;37.80;48.50;;;;;;5030581;28;20044;-49
2021/08/20 14:35:31;;;;;;;7.13;4.18;;;37.70;48.60;;;;;;5030154;28;20052;-50
2021/08/20 14:38:36;;;;;;;8.25;4.55;;;37.90;48.60;;;;;;5030122;28;20048;-51
2021/08/20 14:41:40;;;;;;;10.38;4.50;;;37.50;48.70;;;;;;5029932;28;20043;-50
2021/08/20 14:44:44;;;;;;;7.45;4.00;;;36.90;48.90;;;;;;5029741;28;20072;-50
2021/08/20 14:47:48;;;;;;;23.50;5.53;;;35.90;50.10;;;;;;5029711;28;20053;-49
2021/08/20 14:50:52;;;;;;;11.77;4.43;;;35.30;50.80;;;;;;5029820;28;20526;-51
2021/08/20 14:53:58;;;;;;;6.47;4.00;;;34.80;51.20;;;;;;5029559;28;20045;-49
2021/08/20 14:57:03;;;;;;;11.15;4.35;;;35.10;52.10;;;;;;5029673;28;20400;-49
2021/08/20 15:00:09;;;;;;;7.57;4.03;;;35.30;51.80;;;;;;5029792;28;20049;-49
2021/08/20 15:03:13;;;;;;;12.45;5.15;;;35.60;51.70;;;;;;5028758;28;20042;-49
2021/08/20 15:06:20;;;;;;;7.72;4.47;;;34.80;52.30;;;;;;5029752;28;20048;-49